Terminal Aerodrome Forecast
Issued by NWS

Home | Current Version | Previous Version | Text Only | Print | Product List | Glossary On
Versions: 1 2 3 4 5 6 7 8 9 10 11 12 13
000
FTUS43 KMPX 021140
TAFAXN
TAF
KAXN 021140Z 0212/0312 19007KT P6SM SKC
     FM022000 16015G23KT P6SM FEW070 BKN100
     FM030500 18017G24KT 2SM -SN BR OVC015
     FM030700 18012KT 1/2SM SN FZFG VV004=

USA.gov is the U.S. government's official web portal to all federal, state and local government web resources and services.